sensor_id;sensor_type;location;lat;lon;timestamp;temperature;humidity
7206;DHT22;3644;53.480;10.004;2022-11-20T00:00:24;4.20;99.90
7206;DHT22;3644;53.480;10.004;2022-11-20T00:02:49;4.20;99.90
7206;DHT22;3644;53.480;10.004;2022-11-20T00:05:15;4.20;99.90
7206;DHT22;3644;53.480;10.004;2022-11-20T00:07:40;4.20;99.90
7206;DHT22;3644;53.480;10.004;2022-11-20T00:10:06;4.20;99.90
7206;DHT22;3644;53.480;10.004;2022-11-20T00:12:32;4.00;99.90
7206;DHT22;3644;53.480;10.004;2022-11-20T00:14:57;4.10;99.90
7206;DHT22;3644;53.480;10.004;2022-11-20T00:17:23;4.10;99.90
7206;DHT22;3644;53.480;10.004;2022-11-20T00:19:49;4.10;99.90
7206;DHT22;3644;53.480;10.004;2022-11-20T00:22:14;4.20;99.90
7206;DHT22;3644;53.480;10.004;2022-11-20T00:24:40;4.20;99.90
7206;DHT22;3644;53.480;10.004;2022-11-20T00:27:05;4.30;99.90
7206;DHT22;3644;53.480;10.004;2022-11-20T00:29:30;4.20;99.90
7206;DHT22;3644;53.480;10.004;2022-11-20T00:31:56;4.20;99.90
7206;DHT22;3644;53.480;10.004;2022-11-20T00:34:21;4.10;99.90
7206;DHT22;3644;53.480;10.004;2022-11-20T00:36:47;3.90;99.90
7206;DHT22;3644;53.480;10.004;2022-11-20T00:39:13;4.00;99.90
7206;DHT22;3644;53.480;10.004;2022-11-20T00:41:38;4.10;99.90
7206;DHT22;3644;53.480;10.004;2022-11-20T00:44:04;4.10;99.90
7206;DHT22;3644;53.480;10.004;2022-11-20T00:46:29;4.00;99.90
7206;DHT22;3644;53.480;10.004;2022-11-20T00:48:55;4.00;99.90
7206;DHT22;3644;53.480;10.004;2022-11-20T00:51:23;4.10;99.90
7206;DHT22;3644;53.480;10.004;2022-11-20T00:53:49;4.20;99.90
7206;DHT22;3644;53.480;10.004;2022-11-20T00:56:17;4.10;99.90
7206;DHT22;3644;53.480;10.004;2022-11-20T00:58:45;4.20;99.90
7206;DHT22;3644;53.480;10.004;2022-11-20T01:01:18;4.20;99.90
7206;DHT22;3644;53.480;10.004;2022-11-20T01:03:48;4.30;99.90
7206;DHT22;3644;53.480;10.004;2022-11-20T01:06:23;4.30;99.90
7206;DHT22;3644;53.480;10.004;2022-11-20T01:08:49;4.20;99.90
7206;DHT22;3644;53.480;10.004;2022-11-20T01:11:18;4.10;99.90
7206;DHT22;3644;53.480;10.004;2022-11-20T01:13:45;4.00;99.90
7206;DHT22;3644;53.480;10.004;2022-11-20T01:16:13;4.20;99.90
7206;DHT22;3644;53.480;10.004;2022-11-20T01:18:42;4.10;99.90
7206;DHT22;3644;53.480;10.004;2022-11-20T01:21:11;4.20;99.90
7206;DHT22;3644;53.480;10.004;2022-11-20T01:23:39;4.10;99.90
7206;DHT22;3644;53.480;10.004;2022-11-20T01:26:07;4.10;99.90
7206;DHT22;3644;53.480;10.004;2022-11-20T01:28:33;4.10;99.90
7206;DHT22;3644;53.480;10.004;2022-11-20T01:31:00;4.20;99.90
7206;DHT22;3644;53.480;10.004;2022-11-20T01:33:26;4.20;99.90
7206;DHT22;3644;53.480;10.004;2022-11-20T01:35:52;4.30;99.90
7206;DHT22;3644;53.480;10.004;2022-11-20T01:38:18;4.80;99.90
7206;DHT22;3644;53.480;10.004;2022-11-20T01:40:45;4.10;99.90
7206;DHT22;3644;53.480;10.004;2022-11-20T01:43:18;4.10;99.90
7206;DHT22;3644;53.480;10.004;2022-11-20T01:46:18;4.10;99.90
7206;DHT22;3644;53.480;10.004;2022-11-20T01:48:46;4.20;99.90
7206;DHT22;3644;53.480;10.004;2022-11-20T01:54:06;4.10;99.90
7206;DHT22;3644;53.480;10.004;2022-11-20T01:56:36;4.20;99.90
7206;DHT22;3644;53.480;10.004;2022-11-20T01:59:04;4.20;99.90
7206;DHT22;3644;53.480;10.004;2022-11-20T02:01:31;4.30;99.90
7206;DHT22;3644;53.480;10.004;2022-11-20T02:03:56;4.10;99.90
7206;DHT22;3644;53.480;10.004;2022-11-20T02:06:32;4.10;99.90
7206;DHT22;3644;53.480;10.004;2022-11-20T02:08:58;4.00;99.90
7206;DHT22;3644;53.480;10.004;2022-11-20T02:11:24;4.10;99.90
7206;DHT22;3644;53.480;10.004;2022-11-20T02:13:50;4.00;99.90
7206;DHT22;3644;53.480;10.004;2022-11-20T02:16:26;4.00;99.90
7206;DHT22;3644;53.480;10.004;2022-11-20T02:18:54;4.00;99.90
7206;DHT22;3644;53.480;10.004;2022-11-20T02:24:04;3.90;99.90
7206;DHT22;3644;53.480;10.004;2022-11-20T02:26:35;4.10;99.90
7206;DHT22;3644;53.480;10.004;2022-11-20T02:29:03;4.20;99.90
7206;DHT22;3644;53.480;10.004;2022-11-20T02:31:33;4.20;99.90
7206;DHT22;3644;53.480;10.004;2022-11-20T02:33:59;4.20;99.90
7206;DHT22;3644;53.480;10.004;2022-11-20T02:36:26;4.00;99.90
7206;DHT22;3644;53.480;10.004;2022-11-20T02:38:52;4.00;99.90
7206;DHT22;3644;53.480;10.004;2022-11-20T02:41:18;3.90;99.90
7206;DHT22;3644;53.480;10.004;2022-11-20T02:43:44;3.90;99.90
7206;DHT22;3644;53.480;10.004;2022-11-20T02:46:09;4.00;99.90
7206;DHT22;3644;53.480;10.004;2022-11-20T02:48:35;4.00;99.90
7206;DHT22;3644;53.480;10.004;2022-11-20T02:51:01;4.00;99.90
7206;DHT22;3644;53.480;10.004;2022-11-20T02:53:27;4.10;99.90
7206;DHT22;3644;53.480;10.004;2022-11-20T02:55:52;3.90;99.90
7206;DHT22;3644;53.480;10.004;2022-11-20T02:58:18;3.90;99.90
7206;DHT22;3644;53.480;10.004;2022-11-20T03:00:44;4.00;99.90
7206;DHT22;3644;53.480;10.004;2022-11-20T03:03:09;4.10;99.90
7206;DHT22;3644;53.480;10.004;2022-11-20T03:05:35;4.10;99.90
7206;DHT22;3644;53.480;10.004;2022-11-20T03:08:00;4.20;99.90
7206;DHT22;3644;53.480;10.004;2022-11-20T03:10:26;4.20;99.90
7206;DHT22;3644;53.480;10.004;2022-11-20T03:12:55;4.10;99.90
7206;DHT22;3644;53.480;10.004;2022-11-20T03:15:21;4.00;99.90
7206;DHT22;3644;53.480;10.004;2022-11-20T03:17:47;4.00;99.90
7206;DHT22;3644;53.480;10.004;2022-11-20T03:20:12;4.00;99.90
7206;DHT22;3644;53.480;10.004;2022-11-20T03:22:38;4.00;99.90
7206;DHT22;3644;53.480;10.004;2022-11-20T03:25:04;4.00;99.90
7206;DHT22;3644;53.480;10.004;2022-11-20T03:27:33;3.90;99.90
7206;DHT22;3644;53.480;10.004;2022-11-20T03:29:59;3.80;99.90
7206;DHT22;3644;53.480;10.004;2022-11-20T03:32:25;3.80;99.90
7206;DHT22;3644;53.480;10.004;2022-11-20T03:34:50;3.80;99.90
7206;DHT22;3644;53.480;10.004;2022-11-20T03:37:16;3.90;99.90
7206;DHT22;3644;53.480;10.004;2022-11-20T03:39:41;3.90;99.90
7206;DHT22;3644;53.480;10.004;2022-11-20T03:42:07;3.90;99.90
7206;DHT22;3644;53.480;10.004;2022-11-20T03:44:53;3.80;99.90
7206;DHT22;3644;53.480;10.004;2022-11-20T03:47:18;3.90;99.90
7206;DHT22;3644;53.480;10.004;2022-11-20T03:49:44;4.10;99.90
7206;DHT22;3644;53.480;10.004;2022-11-20T03:52:09;4.00;99.90
7206;DHT22;3644;53.480;10.004;2022-11-20T03:54:35;4.00;99.90
7206;DHT22;3644;53.480;10.004;2022-11-20T03:57:00;4.20;99.90
7206;DHT22;3644;53.480;10.004;2022-11-20T03:59:26;4.30;99.90
7206;DHT22;3644;53.480;10.004;2022-11-20T04:01:51;4.40;99.90
7206;DHT22;3644;53.480;10.004;2022-11-20T04:04:17;4.60;99.90
7206;DHT22;3644;53.480;10.004;2022-11-20T04:06:42;4.70;99.90
7206;DHT22;3644;53.480;10.004;2022-11-20T04:09:08;4.60;99.90
7206;DHT22;3644;53.480;10.004;2022-11-20T04:11:37;4.60;99.90
7206;DHT22;3644;53.480;10.004;2022-11-20T04:14:06;4.30;99.90
7206;DHT22;3644;53.480;10.004;2022-11-20T04:16:35;4.20;99.90
7206;DHT22;3644;53.480;10.004;2022-11-20T04:19:03;4.10;99.90
7206;DHT22;3644;53.480;10.004;2022-11-20T04:21:29;4.00;99.90
7206;DHT22;3644;53.480;10.004;2022-11-20T04:23:55;4.00;99.90
7206;DHT22;3644;53.480;10.004;2022-11-20T04:26:22;4.00;99.90
7206;DHT22;3644;53.480;10.004;2022-11-20T04:28:48;4.00;99.90
7206;DHT22;3644;53.480;10.004;2022-11-20T04:31:16;4.00;99.90
7206;DHT22;3644;53.480;10.004;2022-11-20T04:33:42;3.80;99.90
7206;DHT22;3644;53.480;10.004;2022-11-20T04:36:17;3.90;99.90
7206;DHT22;3644;53.480;10.004;2022-11-20T04:38:43;4.10;99.90
7206;DHT22;3644;53.480;10.004;2022-11-20T04:41:14;3.90;99.90
7206;DHT22;3644;53.480;10.004;2022-11-20T04:43:40;3.90;99.90
7206;DHT22;3644;53.480;10.004;2022-11-20T04:46:05;3.90;99.90
7206;DHT22;3644;53.480;10.004;2022-11-20T04:48:31;3.90;99.90
7206;DHT22;3644;53.480;10.004;2022-11-20T04:50:57;4.00;99.90
7206;DHT22;3644;53.480;10.004;2022-11-20T04:53:23;4.10;99.90
7206;DHT22;3644;53.480;10.004;2022-11-20T04:55:48;4.10;99.90
7206;DHT22;3644;53.480;10.004;2022-11-20T04:58:14;4.20;99.90
7206;DHT22;3644;53.480;10.004;2022-11-20T05:00:40;4.00;99.90
7206;DHT22;3644;53.480;10.004;2022-11-20T05:03:06;4.00;99.90
7206;DHT22;3644;53.480;10.004;2022-11-20T05:05:33;4.10;99.90
7206;DHT22;3644;53.480;10.004;2022-11-20T05:07:59;4.00;99.90
7206;DHT22;3644;53.480;10.004;2022-11-20T05:10:25;3.90;99.90
7206;DHT22;3644;53.480;10.004;2022-11-20T05:12:51;4.20;99.90
7206;DHT22;3644;53.480;10.004;2022-11-20T05:15:17;4.10;99.90
7206;DHT22;3644;53.480;10.004;2022-11-20T05:17:50;4.00;99.90
7206;DHT22;3644;53.480;10.004;2022-11-20T05:20:16;4.20;99.90
7206;DHT22;3644;53.480;10.004;2022-11-20T05:22:42;4.20;99.90
7206;DHT22;3644;53.480;10.004;2022-11-20T05:25:08;4.30;99.90
7206;DHT22;3644;53.480;10.004;2022-11-20T05:27:33;4.30;99.90
7206;DHT22;3644;53.480;10.004;2022-11-20T05:29:59;4.30;99.90
7206;DHT22;3644;53.480;10.004;2022-11-20T05:32:24;4.00;99.90
7206;DHT22;3644;53.480;10.004;2022-11-20T05:34:51;4.00;99.90
7206;DHT22;3644;53.480;10.004;2022-11-20T05:37:17;4.00;99.90
7206;DHT22;3644;53.480;10.004;2022-11-20T05:39:42;4.20;99.90
7206;DHT22;3644;53.480;10.004;2022-11-20T05:42:08;4.20;99.90
7206;DHT22;3644;53.480;10.004;2022-11-20T05:44:52;4.00;99.90
7206;DHT22;3644;53.480;10.004;2022-11-20T05:47:18;3.90;99.90
7206;DHT22;3644;53.480;10.004;2022-11-20T05:49:43;3.90;99.90
7206;DHT22;3644;53.480;10.004;2022-11-20T05:52:09;3.90;99.90
7206;DHT22;3644;53.480;10.004;2022-11-20T05:54:34;4.00;99.90
7206;DHT22;3644;53.480;10.004;2022-11-20T05:57:00;4.00;99.90
7206;DHT22;3644;53.480;10.004;2022-11-20T05:59:25;3.80;99.90
7206;DHT22;3644;53.480;10.004;2022-11-20T06:01:51;3.70;99.90
7206;DHT22;3644;53.480;10.004;2022-11-20T06:04:16;3.90;99.90
7206;DHT22;3644;53.480;10.004;2022-11-20T06:06:42;4.00;99.90
7206;DHT22;3644;53.480;10.004;2022-11-20T06:09:07;4.10;99.90
7206;DHT22;3644;53.480;10.004;2022-11-20T06:11:33;5.00;99.90
7206;DHT22;3644;53.480;10.004;2022-11-20T06:13:58;4.30;99.90
7206;DHT22;3644;53.480;10.004;2022-11-20T06:16:25;4.20;99.90
7206;DHT22;3644;53.480;10.004;2022-11-20T06:18:50;4.40;99.90
7206;DHT22;3644;53.480;10.004;2022-11-20T06:21:18;4.50;99.90
7206;DHT22;3644;53.480;10.004;2022-11-20T06:23:45;4.50;99.90
7206;DHT22;3644;53.480;10.004;2022-11-20T06:26:19;4.50;99.90
7206;DHT22;3644;53.480;10.004;2022-11-20T06:28:45;4.60;99.90
7206;DHT22;3644;53.480;10.004;2022-11-20T06:31:13;4.40;99.90
7206;DHT22;3644;53.480;10.004;2022-11-20T06:33:40;4.40;99.90
7206;DHT22;3644;53.480;10.004;2022-11-20T06:36:05;4.40;99.90
7206;DHT22;3644;53.480;10.004;2022-11-20T06:38:31;4.40;99.90
7206;DHT22;3644;53.480;10.004;2022-11-20T06:40:57;4.30;99.90
7206;DHT22;3644;53.480;10.004;2022-11-20T06:43:23;4.30;99.90
7206;DHT22;3644;53.480;10.004;2022-11-20T06:45:53;4.30;99.90
7206;DHT22;3644;53.480;10.004;2022-11-20T06:48:19;4.30;99.90
7206;DHT22;3644;53.480;10.004;2022-11-20T06:50:44;4.10;99.90
7206;DHT22;3644;53.480;10.004;2022-11-20T06:53:10;4.20;99.90
7206;DHT22;3644;53.480;10.004;2022-11-20T06:55:35;4.30;99.90
7206;DHT22;3644;53.480;10.004;2022-11-20T06:58:01;4.20;99.90
7206;DHT22;3644;53.480;10.004;2022-11-20T07:00:26;4.50;99.90
7206;DHT22;3644;53.480;10.004;2022-11-20T07:02:52;4.60;99.90
7206;DHT22;3644;53.480;10.004;2022-11-20T07:05:17;4.70;99.90
7206;DHT22;3644;53.480;10.004;2022-11-20T07:07:43;4.60;99.90
7206;DHT22;3644;53.480;10.004;2022-11-20T07:10:09;4.50;99.90
7206;DHT22;3644;53.480;10.004;2022-11-20T07:12:35;4.20;99.90
7206;DHT22;3644;53.480;10.004;2022-11-20T07:15:01;4.00;99.90
7206;DHT22;3644;53.480;10.004;2022-11-20T07:17:26;4.00;99.90
7206;DHT22;3644;53.480;10.004;2022-11-20T07:19:52;4.00;99.90
7206;DHT22;3644;53.480;10.004;2022-11-20T07:22:17;4.30;99.90
7206;DHT22;3644;53.480;10.004;2022-11-20T07:24:43;4.10;99.90
7206;DHT22;3644;53.480;10.004;2022-11-20T07:27:08;4.10;99.90
7206;DHT22;3644;53.480;10.004;2022-11-20T07:29:34;4.20;99.90
7206;DHT22;3644;53.480;10.004;2022-11-20T07:31:59;4.20;99.90
7206;DHT22;3644;53.480;10.004;2022-11-20T07:34:25;4.10;99.90
7206;DHT22;3644;53.480;10.004;2022-11-20T07:36:50;4.30;99.90
7206;DHT22;3644;53.480;10.004;2022-11-20T07:39:16;4.30;99.90
7206;DHT22;3644;53.480;10.004;2022-11-20T07:41:41;4.30;99.90
7206;DHT22;3644;53.480;10.004;2022-11-20T07:44:07;4.30;99.90
7206;DHT22;3644;53.480;10.004;2022-11-20T07:46:32;4.10;99.90
7206;DHT22;3644;53.480;10.004;2022-11-20T07:48:58;4.10;99.90
7206;DHT22;3644;53.480;10.004;2022-11-20T07:51:23;4.60;99.90
7206;DHT22;3644;53.480;10.004;2022-11-20T07:53:51;4.70;99.90
7206;DHT22;3644;53.480;10.004;2022-11-20T07:56:17;4.70;99.90
7206;DHT22;3644;53.480;10.004;2022-11-20T07:58:42;4.70;99.90
7206;DHT22;3644;53.480;10.004;2022-11-20T08:01:08;4.50;99.90
7206;DHT22;3644;53.480;10.004;2022-11-20T08:03:34;4.60;99.90
7206;DHT22;3644;53.480;10.004;2022-11-20T08:06:00;4.50;99.90
7206;DHT22;3644;53.480;10.004;2022-11-20T08:08:26;4.60;99.90
7206;DHT22;3644;53.480;10.004;2022-11-20T08:10:52;4.70;99.90
7206;DHT22;3644;53.480;10.004;2022-11-20T08:13:18;4.80;99.90
7206;DHT22;3644;53.480;10.004;2022-11-20T08:16:02;4.90;99.90
7206;DHT22;3644;53.480;10.004;2022-11-20T08:18:27;5.00;99.90
7206;DHT22;3644;53.480;10.004;2022-11-20T08:20:53;5.10;99.90
7206;DHT22;3644;53.480;10.004;2022-11-20T08:23:18;5.10;99.90
7206;DHT22;3644;53.480;10.004;2022-11-20T08:25:49;5.00;99.90
7206;DHT22;3644;53.480;10.004;2022-11-20T08:28:15;4.80;99.90
7206;DHT22;3644;53.480;10.004;2022-11-20T08:30:40;4.50;99.90
7206;DHT22;3644;53.480;10.004;2022-11-20T08:33:08;4.50;99.90
7206;DHT22;3644;53.480;10.004;2022-11-20T08:35:37;4.50;99.90
7206;DHT22;3644;53.480;10.004;2022-11-20T08:38:05;4.50;99.90
7206;DHT22;3644;53.480;10.004;2022-11-20T08:40:31;4.50;99.90
7206;DHT22;3644;53.480;10.004;2022-11-20T08:42:56;4.60;99.90
7206;DHT22;3644;53.480;10.004;2022-11-20T08:45:22;4.50;99.90
7206;DHT22;3644;53.480;10.004;2022-11-20T08:47:48;4.50;99.90
7206;DHT22;3644;53.480;10.004;2022-11-20T08:50:15;4.60;99.90
7206;DHT22;3644;53.480;10.004;2022-11-20T08:52:41;4.60;99.90
7206;DHT22;3644;53.480;10.004;2022-11-20T08:55:07;4.60;99.90
7206;DHT22;3644;53.480;10.004;2022-11-20T08:57:33;4.70;99.90
7206;DHT22;3644;53.480;10.004;2022-11-20T08:59:59;4.70;99.90
7206;DHT22;3644;53.480;10.004;2022-11-20T09:02:25;4.90;99.90
7206;DHT22;3644;53.480;10.004;2022-11-20T09:04:51;4.80;99.90
7206;DHT22;3644;53.480;10.004;2022-11-20T09:07:17;4.80;99.90
7206;DHT22;3644;53.480;10.004;2022-11-20T09:09:42;4.80;99.90
7206;DHT22;3644;53.480;10.004;2022-11-20T09:12:08;4.80;99.90
7206;DHT22;3644;53.480;10.004;2022-11-20T09:14:33;4.70;99.90
7206;DHT22;3644;53.480;10.004;2022-11-20T09:16:59;4.90;99.90
7206;DHT22;3644;53.480;10.004;2022-11-20T09:19:25;4.90;99.90
7206;DHT22;3644;53.480;10.004;2022-11-20T09:21:50;4.90;99.90
7206;DHT22;3644;53.480;10.004;2022-11-20T09:24:17;5.10;99.90
7206;DHT22;3644;53.480;10.004;2022-11-20T09:26:43;4.90;99.90
7206;DHT22;3644;53.480;10.004;2022-11-20T09:29:08;5.00;99.90
7206;DHT22;3644;53.480;10.004;2022-11-20T09:31:34;5.10;99.90
7206;DHT22;3644;53.480;10.004;2022-11-20T09:33:59;5.10;99.90
7206;DHT22;3644;53.480;10.004;2022-11-20T09:36:25;5.00;99.90
7206;DHT22;3644;53.480;10.004;2022-11-20T09:38:50;5.00;99.90
7206;DHT22;3644;53.480;10.004;2022-11-20T09:47:02;5.30;99.90
7206;DHT22;3644;53.480;10.004;2022-11-20T09:55:03;5.60;99.90
7206;DHT22;3644;53.480;10.004;2022-11-20T09:57:37;5.60;99.90
7206;DHT22;3644;53.480;10.004;2022-11-20T10:00:06;5.50;99.90
7206;DHT22;3644;53.480;10.004;2022-11-20T10:02:49;5.60;99.90
7206;DHT22;3644;53.480;10.004;2022-11-20T10:05:24;5.80;99.90
7206;DHT22;3644;53.480;10.004;2022-11-20T10:10:33;5.70;99.90
7206;DHT22;3644;53.480;10.004;2022-11-20T10:32:39;5.20;99.90
7206;DHT22;3644;53.480;10.004;2022-11-20T10:35:18;5.20;99.90
7206;DHT22;3644;53.480;10.004;2022-11-20T10:37:47;5.40;99.90
7206;DHT22;3644;53.480;10.004;2022-11-20T10:42:55;5.70;99.90
7206;DHT22;3644;53.480;10.004;2022-11-20T10:47:54;5.70;99.90
7206;DHT22;3644;53.480;10.004;2022-11-20T10:50:21;5.60;99.90
7206;DHT22;3644;53.480;10.004;2022-11-20T11:00:47;5.90;99.90
7206;DHT22;3644;53.480;10.004;2022-11-20T11:03:25;5.80;99.90
7206;DHT22;3644;53.480;10.004;2022-11-20T11:06:04;5.70;99.90
7206;DHT22;3644;53.480;10.004;2022-11-20T11:08:38;6.00;99.90
7206;DHT22;3644;53.480;10.004;2022-11-20T11:11:32;6.00;99.90
7206;DHT22;3644;53.480;10.004;2022-11-20T11:14:09;6.00;99.90
7206;DHT22;3644;53.480;10.004;2022-11-20T11:16:35;6.10;99.90
7206;DHT22;3644;53.480;10.004;2022-11-20T11:19:13;6.10;99.90
7206;DHT22;3644;53.480;10.004;2022-11-20T11:21:53;6.10;99.90
7206;DHT22;3644;53.480;10.004;2022-11-20T11:24:30;6.20;99.90
7206;DHT22;3644;53.480;10.004;2022-11-20T11:27:01;6.00;99.90
7206;DHT22;3644;53.480;10.004;2022-11-20T11:29:32;6.10;99.90
7206;DHT22;3644;53.480;10.004;2022-11-20T11:32:05;5.80;99.90
7206;DHT22;3644;53.480;10.004;2022-11-20T11:34:30;5.70;99.90
7206;DHT22;3644;53.480;10.004;2022-11-20T11:36:58;5.50;99.90
7206;DHT22;3644;53.480;10.004;2022-11-20T11:39:25;5.60;99.90
7206;DHT22;3644;53.480;10.004;2022-11-20T11:41:52;5.00;99.90
7206;DHT22;3644;53.480;10.004;2022-11-20T11:44:24;5.60;99.90
7206;DHT22;3644;53.480;10.004;2022-11-20T11:49:45;5.80;99.90
7206;DHT22;3644;53.480;10.004;2022-11-20T11:52:14;5.80;99.90
7206;DHT22;3644;53.480;10.004;2022-11-20T11:54:53;5.60;99.90
7206;DHT22;3644;53.480;10.004;2022-11-20T12:07:47;5.90;99.90
7206;DHT22;3644;53.480;10.004;2022-11-20T12:10:40;5.90;99.90
7206;DHT22;3644;53.480;10.004;2022-11-20T12:13:25;6.00;99.90
7206;DHT22;3644;53.480;10.004;2022-11-20T12:15:54;6.00;99.90
7206;DHT22;3644;53.480;10.004;2022-11-20T12:18:21;6.20;99.90
7206;DHT22;3644;53.480;10.004;2022-11-20T12:43:43;6.00;99.90
7206;DHT22;3644;53.480;10.004;2022-11-20T12:46:49;6.20;99.90
7206;DHT22;3644;53.480;10.004;2022-11-20T12:52:03;5.80;99.90
7206;DHT22;3644;53.480;10.004;2022-11-20T12:54:49;5.90;99.90
7206;DHT22;3644;53.480;10.004;2022-11-20T12:59:51;6.10;99.90
7206;DHT22;3644;53.480;10.004;2022-11-20T13:07:46;5.80;99.90
7206;DHT22;3644;53.480;10.004;2022-11-20T13:16:15;5.80;99.90
7206;DHT22;3644;53.480;10.004;2022-11-20T13:18:42;6.00;99.90
7206;DHT22;3644;53.480;10.004;2022-11-20T13:21:18;6.10;99.90
7206;DHT22;3644;53.480;10.004;2022-11-20T13:23:45;6.30;99.90
7206;DHT22;3644;53.480;10.004;2022-11-20T13:28:41;5.60;99.90
7206;DHT22;3644;53.480;10.004;2022-11-20T13:31:32;5.50;99.90
7206;DHT22;3644;53.480;10.004;2022-11-20T13:34:00;5.50;99.90
7206;DHT22;3644;53.480;10.004;2022-11-20T13:36:28;5.80;99.90
7206;DHT22;3644;53.480;10.004;2022-11-20T13:38:55;6.10;99.90
7206;DHT22;3644;53.480;10.004;2022-11-20T13:41:32;6.10;99.90
7206;DHT22;3644;53.480;10.004;2022-11-20T13:44:25;6.20;99.90
7206;DHT22;3644;53.480;10.004;2022-11-20T13:46:52;6.30;99.90
7206;DHT22;3644;53.480;10.004;2022-11-20T13:49:31;6.30;99.90
7206;DHT22;3644;53.480;10.004;2022-11-20T13:55:34;6.40;99.90
7206;DHT22;3644;53.480;10.004;2022-11-20T13:58:15;6.50;99.90
7206;DHT22;3644;53.480;10.004;2022-11-20T14:00:55;6.60;99.90
7206;DHT22;3644;53.480;10.004;2022-11-20T14:03:24;6.60;99.90
7206;DHT22;3644;53.480;10.004;2022-11-20T14:06:01;6.50;99.90
7206;DHT22;3644;53.480;10.004;2022-11-20T14:08:44;6.80;99.90
7206;DHT22;3644;53.480;10.004;2022-11-20T14:11:20;6.90;99.90
7206;DHT22;3644;53.480;10.004;2022-11-20T14:13:55;7.00;99.90
7206;DHT22;3644;53.480;10.004;2022-11-20T14:16:22;6.80;99.90
7206;DHT22;3644;53.480;10.004;2022-11-20T14:18:47;6.80;99.90
7206;DHT22;3644;53.480;10.004;2022-11-20T14:21:23;6.90;99.90
7206;DHT22;3644;53.480;10.004;2022-11-20T14:23:52;6.80;99.90
7206;DHT22;3644;53.480;10.004;2022-11-20T14:26:18;7.00;99.90
7206;DHT22;3644;53.480;10.004;2022-11-20T14:28:48;6.80;99.90
7206;DHT22;3644;53.480;10.004;2022-11-20T14:31:22;6.50;99.90
7206;DHT22;3644;53.480;10.004;2022-11-20T14:33:48;6.40;99.90
7206;DHT22;3644;53.480;10.004;2022-11-20T14:36:19;6.50;99.90
7206;DHT22;3644;53.480;10.004;2022-11-20T14:38:46;6.50;99.90
7206;DHT22;3644;53.480;10.004;2022-11-20T14:41:20;6.50;99.90
7206;DHT22;3644;53.480;10.004;2022-11-20T14:43:59;6.60;99.90
7206;DHT22;3644;53.480;10.004;2022-11-20T14:46:25;6.50;99.90
7206;DHT22;3644;53.480;10.004;2022-11-20T14:48:54;6.60;99.90
7206;DHT22;3644;53.480;10.004;2022-11-20T14:51:32;6.70;99.90
7206;DHT22;3644;53.480;10.004;2022-11-20T14:54:14;6.70;99.90
7206;DHT22;3644;53.480;10.004;2022-11-20T14:56:41;6.70;99.90
7206;DHT22;3644;53.480;10.004;2022-11-20T14:59:08;6.50;99.90
7206;DHT22;3644;53.480;10.004;2022-11-20T15:01:34;6.70;99.90
7206;DHT22;3644;53.480;10.004;2022-11-20T15:04:10;6.70;99.90
7206;DHT22;3644;53.480;10.004;2022-11-20T15:06:37;6.80;99.90
7206;DHT22;3644;53.480;10.004;2022-11-20T15:09:14;6.90;99.90
7206;DHT22;3644;53.480;10.004;2022-11-20T15:11:57;6.90;99.90
7206;DHT22;3644;53.480;10.004;2022-11-20T15:14:24;6.90;99.90
7206;DHT22;3644;53.480;10.004;2022-11-20T15:16:51;6.90;99.90
7206;DHT22;3644;53.480;10.004;2022-11-20T15:19:19;6.90;99.90
7206;DHT22;3644;53.480;10.004;2022-11-20T15:21:45;7.00;99.90
7206;DHT22;3644;53.480;10.004;2022-11-20T15:24:10;6.90;99.90
7206;DHT22;3644;53.480;10.004;2022-11-20T15:26:37;6.70;99.90
7206;DHT22;3644;53.480;10.004;2022-11-20T15:29:04;6.70;99.90
7206;DHT22;3644;53.480;10.004;2022-11-20T15:31:29;6.60;99.90
7206;DHT22;3644;53.480;10.004;2022-11-20T15:33:55;6.50;99.90
7206;DHT22;3644;53.480;10.004;2022-11-20T15:36:20;6.50;99.90
7206;DHT22;3644;53.480;10.004;2022-11-20T15:38:46;6.40;99.90
7206;DHT22;3644;53.480;10.004;2022-11-20T15:41:11;6.40;99.90
7206;DHT22;3644;53.480;10.004;2022-11-20T15:43:37;6.60;99.90
7206;DHT22;3644;53.480;10.004;2022-11-20T15:46:14;6.60;99.90
7206;DHT22;3644;53.480;10.004;2022-11-20T15:48:45;6.40;99.90
7206;DHT22;3644;53.480;10.004;2022-11-20T15:51:29;6.30;99.90
7206;DHT22;3644;53.480;10.004;2022-11-20T15:53:56;6.20;99.90
7206;DHT22;3644;53.480;10.004;2022-11-20T15:56:22;6.20;99.90
7206;DHT22;3644;53.480;10.004;2022-11-20T15:58:48;6.20;99.90
7206;DHT22;3644;53.480;10.004;2022-11-20T16:01:16;6.30;99.90
7206;DHT22;3644;53.480;10.004;2022-11-20T16:03:43;6.40;99.90
7206;DHT22;3644;53.480;10.004;2022-11-20T16:06:08;6.60;99.90
7206;DHT22;3644;53.480;10.004;2022-11-20T16:08:34;6.50;99.90
7206;DHT22;3644;53.480;10.004;2022-11-20T16:10:59;6.60;99.90
7206;DHT22;3644;53.480;10.004;2022-11-20T16:13:25;6.30;99.90
7206;DHT22;3644;53.480;10.004;2022-11-20T16:16:23;6.30;99.90
7206;DHT22;3644;53.480;10.004;2022-11-20T16:18:51;6.40;99.90
7206;DHT22;3644;53.480;10.004;2022-11-20T16:21:16;6.40;99.90
7206;DHT22;3644;53.480;10.004;2022-11-20T16:23:42;6.50;99.90
7206;DHT22;3644;53.480;10.004;2022-11-20T16:26:16;6.30;99.90
7206;DHT22;3644;53.480;10.004;2022-11-20T16:28:42;6.50;99.90
7206;DHT22;3644;53.480;10.004;2022-11-20T16:31:10;6.50;99.90
7206;DHT22;3644;53.480;10.004;2022-11-20T16:33:35;6.40;99.90
7206;DHT22;3644;53.480;10.004;2022-11-20T16:36:12;6.50;99.90
7206;DHT22;3644;53.480;10.004;2022-11-20T16:38:37;6.50;99.90
7206;DHT22;3644;53.480;10.004;2022-11-20T16:41:04;6.60;99.90
7206;DHT22;3644;53.480;10.004;2022-11-20T16:43:29;6.40;99.90
7206;DHT22;3644;53.480;10.004;2022-11-20T16:45:55;6.50;99.90
7206;DHT22;3644;53.480;10.004;2022-11-20T16:48:20;6.50;99.90
7206;DHT22;3644;53.480;10.004;2022-11-20T16:50:48;6.50;99.90
7206;DHT22;3644;53.480;10.004;2022-11-20T16:53:14;6.50;99.90
7206;DHT22;3644;53.480;10.004;2022-11-20T16:55:40;6.40;99.90
7206;DHT22;3644;53.480;10.004;2022-11-20T16:58:05;6.40;99.90
7206;DHT22;3644;53.480;10.004;2022-11-20T17:00:31;6.40;99.90
7206;DHT22;3644;53.480;10.004;2022-11-20T17:02:56;6.30;99.90
7206;DHT22;3644;53.480;10.004;2022-11-20T17:05:22;6.20;99.90
7206;DHT22;3644;53.480;10.004;2022-11-20T17:07:47;6.30;99.90
7206;DHT22;3644;53.480;10.004;2022-11-20T17:10:13;6.20;99.90
7206;DHT22;3644;53.480;10.004;2022-11-20T17:12:38;6.10;99.90
7206;DHT22;3644;53.480;10.004;2022-11-20T17:15:04;6.10;99.90
7206;DHT22;3644;53.480;10.004;2022-11-20T17:17:30;6.00;99.90
7206;DHT22;3644;53.480;10.004;2022-11-20T17:19:55;6.00;99.90
7206;DHT22;3644;53.480;10.004;2022-11-20T17:22:21;6.00;99.90
7206;DHT22;3644;53.480;10.004;2022-11-20T17:24:46;5.90;99.90
7206;DHT22;3644;53.480;10.004;2022-11-20T17:27:12;6.00;99.90
7206;DHT22;3644;53.480;10.004;2022-11-20T17:29:37;5.90;99.90
7206;DHT22;3644;53.480;10.004;2022-11-20T17:32:03;5.90;99.90
7206;DHT22;3644;53.480;10.004;2022-11-20T17:34:28;5.80;99.90
7206;DHT22;3644;53.480;10.004;2022-11-20T17:36:54;5.80;99.90
7206;DHT22;3644;53.480;10.004;2022-11-20T17:39:20;5.70;99.90
7206;DHT22;3644;53.480;10.004;2022-11-20T17:41:45;5.70;99.90
7206;DHT22;3644;53.480;10.004;2022-11-20T17:44:31;5.70;99.90
7206;DHT22;3644;53.480;10.004;2022-11-20T17:46:56;5.60;99.90
7206;DHT22;3644;53.480;10.004;2022-11-20T17:49:22;5.50;99.90
7206;DHT22;3644;53.480;10.004;2022-11-20T17:51:47;5.40;99.90
7206;DHT22;3644;53.480;10.004;2022-11-20T17:54:12;5.30;99.90
7206;DHT22;3644;53.480;10.004;2022-11-20T17:56:38;5.20;99.90
7206;DHT22;3644;53.480;10.004;2022-11-20T17:59:22;5.30;99.90